createdAt,value
2019-06-20T00:01:55.210Z,101566.11
2019-06-20T00:04:24.575Z,101563.19
2019-06-20T00:06:53.924Z,101560.17
2019-06-20T00:09:23.264Z,101556.79
2019-06-20T00:11:53.199Z,101560.78
2019-06-20T00:14:22.522Z,101560.78
2019-06-20T00:16:51.892Z,101566.98
2019-06-20T00:19:21.211Z,101556.55
2019-06-20T00:21:50.538Z,101563.66
2019-06-20T00:24:19.883Z,101566.28
2019-06-20T00:26:49.274Z,101558.11
2019-06-20T00:29:18.650Z,101561.20
2019-06-20T00:31:48.030Z,101560.44
2019-06-20T00:34:17.433Z,101557.91
2019-06-20T00:36:46.774Z,101562.33
2019-06-20T00:39:16.074Z,101568.98
2019-06-20T00:41:46.498Z,101561.56
2019-06-20T00:44:15.841Z,101562.58
2019-06-20T00:46:45.201Z,101560.05
2019-06-20T00:49:14.522Z,101553.55
2019-06-20T00:51:43.849Z,101557.48
2019-06-20T00:54:13.184Z,101558.34
2019-06-20T00:56:42.530Z,101562.27
2019-06-20T00:59:11.850Z,101560.50
2019-06-20T01:01:41.193Z,101560.96
2019-06-20T01:04:10.535Z,101561.88
2019-06-20T01:06:39.893Z,101561.42
2019-06-20T01:09:09.752Z,101554.41
2019-06-20T01:11:39.234Z,101559.34
2019-06-20T01:14:08.663Z,101553.70
2019-06-20T01:16:38.012Z,101554.66
2019-06-20T01:19:09.600Z,101559.56
2019-06-20T01:21:38.974Z,101557.43
2019-06-20T01:24:08.301Z,101557.95
2019-06-20T01:26:37.647Z,101556.33
2019-06-20T01:29:07.030Z,101560.81
2019-06-20T01:31:36.445Z,101554.35
2019-06-20T01:34:05.783Z,101558.34
2019-06-20T01:36:35.134Z,101560.20
2019-06-20T01:39:05.324Z,101554.66
2019-06-20T01:41:34.691Z,101554.66
2019-06-20T01:44:04.040Z,101552.59
2019-06-20T01:46:33.368Z,101556.52
2019-06-20T01:49:02.728Z,101555.11
2019-06-20T01:51:32.054Z,101556.73
2019-06-20T01:54:01.476Z,101546.19
2019-06-20T01:56:30.813Z,101550.88
2019-06-20T01:59:00.146Z,101552.95
2019-06-20T02:01:29.595Z,101547.16
2019-06-20T02:03:59.000Z,101550.57
2019-06-20T02:06:28.340Z,101544.84
2019-06-20T02:08:57.696Z,101543.02
2019-06-20T02:11:27.048Z,101535.60
2019-06-20T02:14:06.734Z,101533.84
2019-06-20T02:16:27.460Z,101536.52
2019-06-20T02:18:56.833Z,101540.91
2019-06-20T02:21:26.198Z,101534.05
2019-06-20T02:23:55.579Z,101534.60
2019-06-20T02:26:24.938Z,101534.70
2019-06-20T02:28:54.274Z,101535.61
2019-06-20T02:31:23.685Z,101528.30
2019-06-20T02:33:53.059Z,101530.61
2019-06-20T02:36:22.400Z,101529.82
2019-06-20T02:38:51.762Z,101532.53
2019-06-20T02:41:21.105Z,101525.59
2019-06-20T02:43:50.471Z,101527.84
2019-06-20T02:46:19.934Z,101525.67
2019-06-20T02:48:49.278Z,101527.05
2019-06-20T02:51:20.342Z,101530.62
2019-06-20T02:53:49.796Z,101524.98
2019-06-20T02:56:19.133Z,101525.92
2019-06-20T02:58:48.502Z,101520.28
2019-06-20T03:01:17.856Z,101529.55
2019-06-20T03:03:47.202Z,101524.67
2019-06-20T03:06:16.556Z,101523.82
2019-06-20T03:08:45.929Z,101527.59
2019-06-20T03:11:15.238Z,101524.98
2019-06-20T03:13:44.569Z,101523.61
2019-06-20T03:16:13.930Z,101519.13
2019-06-20T03:18:43.279Z,101521.20
2019-06-20T03:21:12.639Z,101520.65
2019-06-20T03:23:42.007Z,101529.77
2019-06-20T03:26:11.367Z,101532.75
2019-06-20T03:28:40.693Z,101530.92
2019-06-20T03:31:10.044Z,101523.05
2019-06-20T03:33:39.442Z,101527.75
2019-06-20T03:36:08.798Z,101532.08
2019-06-20T03:38:40.246Z,101532.89
2019-06-20T03:41:09.630Z,101534.55
2019-06-20T03:43:38.986Z,101537.98
2019-06-20T03:46:08.337Z,101538.84
2019-06-20T03:48:37.675Z,101537.07
2019-06-20T03:51:07.029Z,101539.23
2019-06-20T03:53:36.386Z,101541.86
2019-06-20T03:56:05.709Z,101537.92
2019-06-20T03:58:35.104Z,101542.61
2019-06-20T04:01:04.462Z,101538.29
2019-06-20T04:03:34.735Z,101542.61
2019-06-20T04:06:04.091Z,101545.23
2019-06-20T04:08:33.447Z,101553.56
2019-06-20T04:11:03.034Z,101552.34
2019-06-20T04:13:32.400Z,101551.58
2019-06-20T04:16:01.779Z,101557.89
2019-06-20T04:18:31.112Z,101548.95
2019-06-20T04:21:00.427Z,101553.59
2019-06-20T04:23:29.785Z,101549.66
2019-06-20T04:25:59.137Z,101544.47
2019-06-20T04:28:28.490Z,101543.86
2019-06-20T04:30:57.837Z,101548.87
2019-06-20T04:33:27.233Z,101547.31
2019-06-20T04:35:56.599Z,101542.01
2019-06-20T04:38:25.942Z,101544.07
2019-06-20T04:40:55.317Z,101545.61
2019-06-20T04:43:24.662Z,101546.67
2019-06-20T04:46:05.900Z,101552.91
2019-06-20T04:48:35.243Z,101558.23
2019-06-20T04:51:04.709Z,101558.23
2019-06-20T04:53:34.128Z,101555.61
2019-06-20T04:56:05.772Z,101555.21
2019-06-20T04:58:34.588Z,101557.83
2019-06-20T05:01:03.975Z,101558.38
2019-06-20T05:03:33.368Z,101561.84
2019-06-20T05:06:02.785Z,101562.70
2019-06-20T05:08:32.124Z,101566.53
2019-06-20T05:11:01.474Z,101559.45
2019-06-20T05:13:30.846Z,101561.07
2019-06-20T05:16:00.208Z,101560.47
2019-06-20T05:18:29.604Z,101554.32
2019-06-20T05:20:58.987Z,101560.63
2019-06-20T05:23:28.332Z,101557.02
2019-06-20T05:25:57.726Z,101557.33
2019-06-20T05:28:27.146Z,101561.11
2019-06-20T05:30:57.452Z,101558.44
2019-06-20T05:33:26.794Z,101555.72
2019-06-20T05:35:56.157Z,101560.42
2019-06-20T05:38:25.562Z,101563.80
2019-06-20T05:40:54.888Z,101558.95
2019-06-20T05:43:24.228Z,101558.95
2019-06-20T05:46:08.202Z,101564.05
2019-06-20T05:48:25.381Z,101570.45
2019-06-20T05:50:54.794Z,101572.92
2019-06-20T05:53:24.160Z,101573.59
2019-06-20T05:55:53.575Z,101574.30
2019-06-20T05:58:23.028Z,101578.02
2019-06-20T06:00:52.395Z,101578.33
2019-06-20T06:03:21.774Z,101576.84
2019-06-20T06:05:51.101Z,101580.71
2019-06-20T06:08:20.440Z,101582.78
2019-06-20T06:10:49.808Z,101578.70
2019-06-20T06:13:19.157Z,101583.39
2019-06-20T06:15:48.492Z,101585.50
2019-06-20T06:18:17.838Z,101587.13
2019-06-20T06:20:47.203Z,101586.97
2019-06-20T06:23:16.761Z,101598.36
2019-06-20T06:25:46.055Z,101598.77
2019-06-20T06:28:15.419Z,101600.08
2019-06-20T06:30:44.736Z,101599.89
2019-06-20T06:33:14.296Z,101604.13
2019-06-20T06:35:43.690Z,101605.59
2019-06-20T06:38:13.087Z,101609.31
2019-06-20T06:40:42.591Z,101610.84
2019-06-20T06:43:11.979Z,101614.59
2019-06-20T06:45:41.311Z,101615.95
2019-06-20T06:48:10.702Z,101615.95
2019-06-20T06:50:40.072Z,101622.75
2019-06-20T06:53:09.658Z,101622.75
2019-06-20T06:55:39.027Z,101621.26
2019-06-20T06:58:09.072Z,101624.67
2019-06-20T07:00:38.496Z,101621.56
2019-06-20T07:03:08.572Z,101622.81
2019-06-20T07:05:39.836Z,101625.83
2019-06-20T07:08:09.344Z,101620.19
2019-06-20T07:10:38.824Z,101626.90
2019-06-20T07:13:08.218Z,101633.45
2019-06-20T07:15:37.656Z,101642.18
2019-06-20T07:18:07.129Z,101634.92
2019-06-20T07:20:36.438Z,101625.53
2019-06-20T07:23:05.875Z,101640.02
2019-06-20T07:25:35.251Z,101633.55
2019-06-20T07:28:04.572Z,101638.34
2019-06-20T07:30:33.999Z,101643.50
2019-06-20T07:33:03.347Z,101642.94
2019-06-20T07:35:32.798Z,101651.21
2019-06-20T07:38:02.189Z,101661.77
2019-06-20T07:40:31.557Z,101654.08
2019-06-20T07:43:01.017Z,101655.84
2019-06-20T07:45:30.379Z,101660.78
2019-06-20T07:48:01.517Z,101665.79
2019-06-20T07:50:30.832Z,101664.38
2019-06-20T07:53:02.462Z,101669.27
2019-06-20T07:55:31.361Z,101670.79
2019-06-20T07:58:00.698Z,101670.79
2019-06-20T08:00:30.270Z,101668.96
2019-06-20T08:02:59.593Z,101675.83
2019-06-20T08:05:28.932Z,101676.59
2019-06-20T08:07:58.349Z,101680.52
2019-06-20T08:10:28.096Z,101687.78
2019-06-20T08:12:57.429Z,101686.12
2019-06-20T08:15:26.876Z,101686.67
2019-06-20T08:17:56.400Z,101686.06
2019-06-20T08:20:25.810Z,101691.61
2019-06-20T08:22:55.173Z,101692.77
2019-06-20T08:25:24.771Z,101691.30
2019-06-20T08:27:54.096Z,101692.43
2019-06-20T08:30:28.935Z,101690.09
2019-06-20T08:33:01.297Z,101690.09
2019-06-20T08:35:30.821Z,101678.98
2019-06-20T08:38:01.248Z,101680.53
2019-06-20T08:40:33.487Z,101685.96
2019-06-20T08:43:04.156Z,101685.96
2019-06-20T08:45:34.815Z,101687.55
2019-06-20T08:48:04.744Z,101687.75
2019-06-20T08:50:34.632Z,101682.44
2019-06-20T08:53:05.826Z,101684.96
2019-06-20T08:55:35.434Z,101689.73
2019-06-20T08:58:05.636Z,101689.50
2019-06-20T09:00:37.039Z,101700.50
2019-06-20T09:03:07.661Z,101712.34
2019-06-20T09:05:37.349Z,101693.36
2019-06-20T09:08:11.364Z,101693.36
2019-06-20T09:10:40.816Z,101687.31
2019-06-20T09:13:12.697Z,101699.30
2019-06-20T09:15:43.136Z,101694.04
2019-06-20T09:18:13.222Z,101694.04
2019-06-20T09:20:42.653Z,101705.04
2019-06-20T09:23:13.110Z,101689.94
2019-06-20T09:25:42.485Z,101682.66
2019-06-20T09:28:11.808Z,101682.66
2019-06-20T09:30:41.474Z,101679.41
2019-06-20T09:33:10.917Z,101698.49
2019-06-20T09:35:40.231Z,101694.39
2019-06-20T09:38:09.593Z,101693.83
2019-06-20T09:40:39.058Z,101706.34
2019-06-20T09:43:08.399Z,101694.52
2019-06-20T09:45:38.250Z,101709.77
2019-06-20T09:48:07.669Z,101704.97
2019-06-20T09:50:37.029Z,101704.97
2019-06-20T09:53:06.573Z,101716.27
2019-06-20T09:55:36.081Z,101711.20
2019-06-20T09:58:05.914Z,101703.32
2019-06-20T10:00:35.902Z,101708.67
2019-06-20T10:03:07.250Z,101708.67
2019-06-20T10:05:37.215Z,101704.28
2019-06-20T10:08:06.627Z,101705.09
2019-06-20T10:10:36.398Z,101725.79
2019-06-20T10:13:05.857Z,101723.55
2019-06-20T10:15:40.591Z,101727.04
2019-06-20T10:18:10.044Z,101728.42
2019-06-20T10:20:39.575Z,101731.90
2019-06-20T10:23:09.240Z,101730.12
2019-06-20T10:25:39.008Z,101730.12
2019-06-20T10:28:08.556Z,101719.84
2019-06-20T10:30:37.950Z,101733.48
2019-06-20T10:33:07.335Z,101728.58
2019-06-20T10:35:36.767Z,101729.38
2019-06-20T10:38:06.178Z,101731.30
2019-06-20T10:40:35.836Z,101731.30
2019-06-20T10:43:05.329Z,101743.68
2019-06-20T10:45:35.675Z,101737.91
2019-06-20T10:48:05.240Z,101737.91
2019-06-20T10:50:34.547Z,101731.72
2019-06-20T10:53:03.885Z,101747.33
2019-06-20T10:55:33.307Z,101731.89
2019-06-20T10:58:02.844Z,101748.64
2019-06-20T11:00:33.279Z,101749.33
2019-06-20T11:03:02.690Z,101743.80
2019-06-20T11:05:32.104Z,101734.45
2019-06-20T11:08:01.461Z,101735.84
2019-06-20T11:10:31.278Z,101726.86
2019-06-20T11:13:00.622Z,101714.21
2019-06-20T11:15:30.504Z,101716.74
2019-06-20T11:17:59.841Z,101706.28
2019-06-20T11:20:29.150Z,101706.28
2019-06-20T11:22:58.500Z,101706.85
2019-06-20T11:25:27.815Z,101706.03
2019-06-20T11:27:57.155Z,101719.02
2019-06-20T11:30:27.342Z,101707.56
2019-06-20T11:32:56.678Z,101723.64
2019-06-20T11:35:26.050Z,101727.69
2019-06-20T11:37:56.537Z,101727.69
2019-06-20T11:40:26.400Z,101722.31
2019-06-20T11:42:55.784Z,101708.33
2019-06-20T11:45:26.036Z,101722.69
2019-06-20T11:47:55.456Z,101716.31
2019-06-20T11:50:25.037Z,101725.23
2019-06-20T11:52:54.366Z,101727.05
2019-06-20T11:55:24.256Z,101748.96
2019-06-20T11:57:53.619Z,101748.87
2019-06-20T12:00:24.532Z,101763.83
2019-06-20T12:02:53.872Z,101741.36
2019-06-20T12:05:23.210Z,101738.23
2019-06-20T12:07:52.564Z,101735.84
2019-06-20T12:10:23.463Z,101739.80
2019-06-20T12:12:52.947Z,101729.83
2019-06-20T12:15:23.809Z,101736.77
2019-06-20T12:17:53.495Z,101723.23
2019-06-20T12:20:23.468Z,101721.88
2019-06-20T12:22:52.824Z,101723.55
2019-06-20T12:25:22.450Z,101717.11
2019-06-20T12:27:51.775Z,101722.27
2019-06-20T12:30:24.115Z,101707.36
2019-06-20T12:32:53.456Z,101704.64
2019-06-20T12:35:22.867Z,101699.78
2019-06-20T12:37:52.317Z,101707.19
2019-06-20T12:40:21.845Z,101705.39
2019-06-20T12:42:52.188Z,101718.75
2019-06-20T12:45:23.049Z,101713.84
2019-06-20T12:47:52.613Z,101715.99
2019-06-20T12:50:22.240Z,101718.42
2019-06-20T12:52:51.573Z,101723.17
2019-06-20T12:55:22.714Z,101714.13
2019-06-20T12:57:52.126Z,101710.88
2019-06-20T13:00:23.596Z,101716.13
2019-06-20T13:02:52.943Z,101721.80
2019-06-20T13:05:22.754Z,101730.34
2019-06-20T13:07:52.338Z,101732.78
2019-06-20T13:10:22.472Z,101735.53
2019-06-20T13:12:51.826Z,101746.52
2019-06-20T13:15:21.360Z,101740.74
2019-06-20T13:17:50.807Z,101726.48
2019-06-20T13:20:21.052Z,101731.92
2019-06-20T13:22:50.485Z,101716.47
2019-06-20T13:25:19.791Z,101720.43
2019-06-20T13:27:50.545Z,101715.02
2019-06-20T13:30:20.752Z,101715.91
2019-06-20T13:32:50.077Z,101717.73
2019-06-20T13:35:20.255Z,101724.67
2019-06-20T13:37:50.006Z,101720.33
2019-06-20T13:40:19.603Z,101720.02
2019-06-20T13:42:50.284Z,101722.00
2019-06-20T13:45:24.400Z,101729.76
2019-06-20T13:47:54.240Z,101729.22
2019-06-20T13:50:24.832Z,101715.72
2019-06-20T13:52:54.721Z,101714.10
2019-06-20T13:55:24.173Z,101692.34
2019-06-20T13:57:53.524Z,101694.08
2019-06-20T14:00:25.024Z,101666.84
2019-06-20T14:02:56.285Z,101665.03
2019-06-20T14:05:25.601Z,101670.08
2019-06-20T14:07:56.022Z,101640.59
2019-06-20T14:10:27.745Z,101648.91
2019-06-20T14:12:57.106Z,101645.39
2019-06-20T14:15:26.453Z,101629.89
2019-06-20T14:17:55.823Z,101626.55
2019-06-20T14:20:26.825Z,101617.28
2019-06-20T14:22:56.636Z,101625.95
2019-06-20T14:25:26.079Z,101615.98
2019-06-20T14:27:55.463Z,101623.15
2019-06-20T14:30:25.568Z,101630.22
2019-06-20T14:32:55.994Z,101653.06
2019-06-20T14:35:25.912Z,101633.31
2019-06-20T14:37:55.679Z,101645.81
2019-06-20T14:40:25.487Z,101660.87
2019-06-20T14:42:56.712Z,101672.33
2019-06-20T14:45:26.359Z,101662.22
2019-06-20T14:47:55.905Z,101670.07
2019-06-20T14:50:25.662Z,101663.45
2019-06-20T14:52:55.291Z,101666.23
2019-06-20T14:55:24.761Z,101666.52
2019-06-20T14:57:54.835Z,101655.58
2019-06-20T15:00:24.949Z,101660.72
2019-06-20T15:02:58.537Z,101668.59
2019-06-20T15:05:27.192Z,101676.84
2019-06-20T15:07:56.567Z,101684.27
2019-06-20T15:10:26.007Z,101681.53
2019-06-20T15:12:56.156Z,101691.09
2019-06-20T15:15:27.374Z,101704.83
2019-06-20T15:17:58.230Z,101709.84
2019-06-20T15:20:28.797Z,101723.36
2019-06-20T15:22:58.147Z,101727.50
2019-06-20T15:25:27.490Z,101742.67
2019-06-20T15:27:57.433Z,101737.53
2019-06-20T15:30:27.041Z,101744.34
2019-06-20T15:33:07.568Z,101721.42
2019-06-20T15:38:04.613Z,101727.17
2019-06-20T15:40:34.076Z,101736.80
2019-06-20T15:43:04.712Z,101730.98
2019-06-20T15:45:34.047Z,101732.34
2019-06-20T15:48:03.426Z,101745.89
2019-06-20T15:50:32.862Z,101752.57
2019-06-20T15:53:02.211Z,101766.45
2019-06-20T15:55:31.608Z,101766.23
2019-06-20T15:58:01.033Z,101783.34
2019-06-20T16:00:30.506Z,101787.25
2019-06-20T16:03:09.482Z,101796.48
2019-06-20T16:05:31.062Z,101807.41
2019-06-20T16:08:00.551Z,101815.73
2019-06-20T16:10:29.915Z,101827.28
2019-06-20T16:12:59.278Z,101828.66
2019-06-20T16:15:28.708Z,101822.42
2019-06-20T16:17:58.071Z,101810.98
2019-06-20T16:20:27.526Z,101811.83
2019-06-20T16:22:56.902Z,101812.41
2019-06-20T16:25:26.250Z,101811.67
2019-06-20T16:27:55.723Z,101806.78
2019-06-20T16:30:26.452Z,101797.55
2019-06-20T16:32:56.780Z,101799.41
2019-06-20T16:35:26.115Z,101810.58
2019-06-20T16:37:55.487Z,101816.08
2019-06-20T16:40:45.271Z,101811.77
2019-06-20T16:43:14.763Z,101806.31
2019-06-20T16:45:44.292Z,101811.09
2019-06-20T16:48:13.652Z,101811.86
2019-06-20T16:50:43.153Z,101814.78
2019-06-20T16:53:12.499Z,101819.09
2019-06-20T16:55:43.303Z,101815.98
2019-06-20T16:58:12.725Z,101819.30
2019-06-20T17:00:42.266Z,101797.08
2019-06-20T17:03:11.609Z,101802.76
2019-06-20T17:05:40.965Z,101785.77
2019-06-20T17:08:10.396Z,101783.04
2019-06-20T17:10:41.359Z,101772.63
2019-06-20T17:13:11.904Z,101776.74
2019-06-20T17:15:41.369Z,101756.30
2019-06-20T17:18:10.802Z,101745.16
2019-06-20T17:20:40.229Z,101751.99
2019-06-20T17:23:09.580Z,101741.08
2019-06-20T17:25:38.921Z,101749.44
2019-06-20T17:28:08.297Z,101766.64
2019-06-20T17:30:38.065Z,101770.45
2019-06-20T17:33:07.422Z,101779.89
2019-06-20T17:35:36.843Z,101789.92
2019-06-20T17:38:06.258Z,101800.23
2019-06-20T17:40:35.812Z,101802.45
2019-06-20T17:43:05.402Z,101792.23
2019-06-20T17:45:34.868Z,101797.35
2019-06-20T17:48:04.218Z,101802.83
2019-06-20T17:50:33.560Z,101807.52
2019-06-20T17:53:03.098Z,101808.84
2019-06-20T17:55:32.423Z,101809.23
2019-06-20T17:58:01.772Z,101806.08
2019-06-20T18:00:31.516Z,101811.55
2019-06-20T18:03:01.043Z,101812.03
2019-06-20T18:05:33.882Z,101816.37
2019-06-20T18:08:14.665Z,101820.80
2019-06-20T18:10:34.332Z,101814.40
2019-06-20T18:13:04.063Z,101826.61
2019-06-20T18:15:34.063Z,101835.63
2019-06-20T18:18:03.450Z,101847.85
2019-06-20T18:20:32.880Z,101837.20
2019-06-20T18:23:02.752Z,101839.52
2019-06-20T18:25:32.193Z,101842.42
2019-06-20T18:28:01.586Z,101843.41
2019-06-20T18:30:41.943Z,101843.75
2019-06-20T18:33:12.236Z,101844.77
2019-06-20T18:35:41.767Z,101852.21
2019-06-20T18:38:11.116Z,101866.63
2019-06-20T18:40:40.443Z,101863.87
2019-06-20T18:43:09.847Z,101856.09
2019-06-20T18:45:39.172Z,101855.34
2019-06-20T18:48:09.499Z,101858.43
2019-06-20T18:50:38.975Z,101863.08
2019-06-20T18:53:08.516Z,101867.70
2019-06-20T18:55:39.294Z,101865.86
2019-06-20T18:58:08.634Z,101874.63
2019-06-20T19:00:37.996Z,101875.81
2019-06-20T19:03:07.431Z,101871.11
2019-06-20T19:05:36.778Z,101879.77
2019-06-20T19:08:06.167Z,101873.05
2019-06-20T19:10:35.489Z,101875.78
2019-06-20T19:13:04.839Z,101875.20
2019-06-20T19:15:34.308Z,101876.51
2019-06-20T19:18:03.656Z,101876.19
2019-06-20T19:20:33.973Z,101870.33
2019-06-20T19:23:03.367Z,101888.38
2019-06-20T19:25:32.713Z,101895.05
2019-06-20T19:28:02.022Z,101892.18
2019-06-20T19:30:48.441Z,101900.09
2019-06-20T19:33:18.016Z,101900.01
2019-06-20T19:35:47.696Z,101899.86
2019-06-20T19:38:17.104Z,101895.16
2019-06-20T19:40:48.111Z,101899.56
2019-06-20T19:43:17.565Z,101904.20
2019-06-20T19:45:47.284Z,101904.96
2019-06-20T19:48:17.336Z,101906.73
2019-06-20T19:50:48.910Z,101906.53
2019-06-20T19:53:18.230Z,101914.11
2019-06-20T19:55:47.875Z,101914.73
2019-06-20T19:58:17.384Z,101914.13
2019-06-20T20:00:46.770Z,101913.58
2019-06-20T20:03:16.128Z,101912.30
2019-06-20T20:05:45.658Z,101913.43
2019-06-20T20:08:14.975Z,101921.92
2019-06-20T20:10:48.469Z,101915.11
2019-06-20T20:13:18.175Z,101921.06
2019-06-20T20:15:48.326Z,101924.23
2019-06-20T20:18:17.751Z,101931.41
2019-06-20T20:20:48.872Z,101933.27
2019-06-20T20:23:18.487Z,101936.89
2019-06-20T20:25:47.858Z,101936.89
2019-06-20T20:28:17.195Z,101933.33
2019-06-20T20:30:46.979Z,101940.75
2019-06-20T20:33:17.530Z,101933.77
2019-06-20T20:35:46.868Z,101948.61
2019-06-20T20:38:17.973Z,101948.61
2019-06-20T20:40:47.317Z,101950.92
2019-06-20T20:43:16.928Z,101952.84
2019-06-20T20:45:46.407Z,101960.48
2019-06-20T20:48:15.733Z,101949.42
2019-06-20T20:50:45.117Z,101949.42
2019-06-20T20:53:14.499Z,101950.47
2019-06-20T20:55:44.873Z,101952.47
2019-06-20T20:58:14.338Z,101952.09
2019-06-20T21:01:11.322Z,101952.09
2019-06-20T21:03:40.689Z,101948.36
2019-06-20T21:06:10.032Z,101957.54
2019-06-20T21:08:39.351Z,101958.08
2019-06-20T21:11:08.707Z,101953.38
2019-06-20T21:13:38.119Z,101961.25
2019-06-20T21:16:07.439Z,101962.16
2019-06-20T21:18:36.912Z,101962.16
2019-06-20T21:21:06.290Z,101970.11
2019-06-20T21:23:35.730Z,101965.01
2019-06-20T21:26:05.054Z,101968.54
2019-06-20T21:28:34.412Z,101967.45
2019-06-20T21:31:03.854Z,101967.45
2019-06-20T21:33:33.145Z,101966.41
2019-06-20T21:36:08.520Z,101974.28
2019-06-20T21:38:33.853Z,101975.28
2019-06-20T21:41:03.257Z,101971.48
2019-06-20T21:43:32.616Z,101975.09
2019-06-20T21:46:02.076Z,101977.40
2019-06-20T21:48:31.427Z,101969.72
2019-06-20T21:51:00.764Z,101981.12
2019-06-20T21:53:30.106Z,101981.12
2019-06-20T21:55:59.507Z,101984.65
2019-06-20T21:58:28.827Z,101982.52
2019-06-20T22:01:00.596Z,101984.73
2019-06-20T22:03:30.093Z,101985.27
2019-06-20T22:05:59.424Z,101985.27
2019-06-20T22:08:28.772Z,101985.13
2019-06-20T22:10:58.150Z,101985.13
2019-06-20T22:13:27.496Z,101988.20
2019-06-20T22:15:56.805Z,101981.73
2019-06-20T22:18:26.148Z,101981.73
2019-06-20T22:20:55.474Z,101983.13
2019-06-20T22:23:24.900Z,101982.80
2019-06-20T22:25:54.256Z,101991.17
2019-06-20T22:28:23.579Z,101989.09
2019-06-20T22:30:54.592Z,101990.48
2019-06-20T22:33:23.910Z,101989.63
2019-06-20T22:35:53.244Z,102000.97
2019-06-20T22:38:22.600Z,101996.55
2019-06-20T22:40:54.407Z,102000.11
2019-06-20T22:43:23.767Z,102005.80
2019-06-20T22:45:53.093Z,102008.88
2019-06-20T22:48:22.425Z,102002.58
2019-06-20T22:50:51.801Z,102002.58
2019-06-20T22:53:21.178Z,102011.26
2019-06-20T22:55:50.513Z,102013.47
2019-06-20T22:58:19.829Z,102007.38
2019-06-20T23:00:49.335Z,102014.01
2019-06-20T23:03:18.709Z,102013.60
2019-06-20T23:05:48.037Z,102009.67
2019-06-20T23:08:17.365Z,102011.89
2019-06-20T23:10:46.701Z,102011.52
2019-06-20T23:13:16.079Z,102009.75
2019-06-20T23:15:45.401Z,102014.91
2019-06-20T23:18:14.713Z,102016.67
2019-06-20T23:21:00.655Z,102016.63
2019-06-20T23:23:15.169Z,102018.80
2019-06-20T23:25:47.033Z,102018.72
2019-06-20T23:28:16.438Z,102025.27
2019-06-20T23:30:45.771Z,102021.34
2019-06-20T23:33:15.103Z,102023.88
2019-06-20T23:35:44.474Z,102022.56
2019-06-20T23:38:13.815Z,102022.56
2019-06-20T23:40:43.369Z,102022.56
2019-06-20T23:43:12.747Z,102024.04
2019-06-20T23:45:42.099Z,102024.04
2019-06-20T23:48:11.484Z,102030.05
2019-06-20T23:50:40.814Z,102030.91
2019-06-20T23:53:16.230Z,102030.91
2019-06-20T23:55:46.566Z,102034.84
2019-06-20T23:58:15.995Z,102041.41
